sensor_id;sensor_type;location;lat;lon;timestamp;pressure;altitude;pressure_sealevel;temperature;humidity
42111;BME280;27766;52.174;5.456;2022-08-21T00:00:34;101623.63;;;14.41;100.00
42111;BME280;27766;52.174;5.456;2022-08-21T00:03:04;101621.00;;;14.40;100.00
42111;BME280;27766;52.174;5.456;2022-08-21T00:05:44;101626.16;;;14.37;100.00
42111;BME280;27766;52.174;5.456;2022-08-21T00:08:13;101630.44;;;14.32;100.00
42111;BME280;27766;52.174;5.456;2022-08-21T00:10:41;101623.44;;;14.28;100.00
42111;BME280;27766;52.174;5.456;2022-08-21T00:13:08;101624.22;;;14.22;100.00
42111;BME280;27766;52.174;5.456;2022-08-21T00:15:37;101622.41;;;14.18;100.00
42111;BME280;27766;52.174;5.456;2022-08-21T00:18:07;101615.41;;;14.14;100.00
42111;BME280;27766;52.174;5.456;2022-08-21T00:20:34;101624.91;;;14.10;100.00
42111;BME280;27766;52.174;5.456;2022-08-21T00:23:02;101622.28;;;14.08;100.00
42111;BME280;27766;52.174;5.456;2022-08-21T00:25:29;101624.00;;;14.08;100.00
42111;BME280;27766;52.174;5.456;2022-08-21T00:27:57;101620.53;;;14.09;100.00
42111;BME280;27766;52.174;5.456;2022-08-21T00:30:26;101624.91;;;14.12;100.00
42111;BME280;27766;52.174;5.456;2022-08-21T00:32:54;101611.91;;;14.10;100.00
42111;BME280;27766;52.174;5.456;2022-08-21T00:35:31;101612.75;;;14.11;100.00
42111;BME280;27766;52.174;5.456;2022-08-21T00:38:03;101616.19;;;14.06;100.00
42111;BME280;27766;52.174;5.456;2022-08-21T00:40:48;101607.44;;;14.01;100.00
42111;BME280;27766;52.174;5.456;2022-08-21T00:43:19;101610.88;;;14.02;100.00
42111;BME280;27766;52.174;5.456;2022-08-21T00:45:47;101601.34;;;14.02;100.00
42111;BME280;27766;52.174;5.456;2022-08-21T00:48:14;101599.56;;;13.98;100.00
42111;BME280;27766;52.174;5.456;2022-08-21T00:50:48;101604.69;;;13.95;100.00
42111;BME280;27766;52.174;5.456;2022-08-21T00:53:17;101614.34;;;14.01;100.00
42111;BME280;27766;52.174;5.456;2022-08-21T00:55:45;101616.09;;;14.00;100.00
42111;BME280;27766;52.174;5.456;2022-08-21T00:58:13;101618.63;;;13.97;100.00
42111;BME280;27766;52.174;5.456;2022-08-21T01:00:46;101617.75;;;13.97;100.00
42111;BME280;27766;52.174;5.456;2022-08-21T01:03:18;101610.78;;;13.96;100.00
42111;BME280;27766;52.174;5.456;2022-08-21T01:05:52;101611.66;;;13.95;100.00
42111;BME280;27766;52.174;5.456;2022-08-21T01:08:22;101606.44;;;13.93;100.00
42111;BME280;27766;52.174;5.456;2022-08-21T01:10:53;101606.38;;;13.91;100.00
42111;BME280;27766;52.174;5.456;2022-08-21T01:13:23;101606.38;;;13.90;100.00
42111;BME280;27766;52.174;5.456;2022-08-21T01:15:54;101590.66;;;13.84;100.00
42111;BME280;27766;52.174;5.456;2022-08-21T01:18:23;101608.97;;;13.90;100.00
42111;BME280;27766;52.174;5.456;2022-08-21T01:21:13;101607.19;;;13.87;100.00
42111;BME280;27766;52.174;5.456;2022-08-21T01:23:44;101600.16;;;13.83;100.00
42111;BME280;27766;52.174;5.456;2022-08-21T01:26:15;101602.75;;;13.80;100.00
42111;BME280;27766;52.174;5.456;2022-08-21T01:28:56;101601.78;;;13.75;100.00
42111;BME280;27766;52.174;5.456;2022-08-21T01:31:27;101608.69;;;13.73;100.00
42111;BME280;27766;52.174;5.456;2022-08-21T01:33:56;101606.00;;;13.67;100.00
42111;BME280;27766;52.174;5.456;2022-08-21T01:36:25;101599.88;;;13.65;100.00
42111;BME280;27766;52.174;5.456;2022-08-21T01:38:52;101600.72;;;13.65;100.00
42111;BME280;27766;52.174;5.456;2022-08-21T01:41:19;101602.50;;;13.66;100.00
42111;BME280;27766;52.174;5.456;2022-08-21T01:43:46;101605.13;;;13.68;100.00
42111;BME280;27766;52.174;5.456;2022-08-21T01:46:14;101599.88;;;13.65;100.00
42111;BME280;27766;52.174;5.456;2022-08-21T01:48:42;101596.44;;;13.66;100.00
42111;BME280;27766;52.174;5.456;2022-08-21T01:51:11;101592.97;;;13.67;100.00
42111;BME280;27766;52.174;5.456;2022-08-21T01:53:38;101598.19;;;13.67;100.00
42111;BME280;27766;52.174;5.456;2022-08-21T01:56:08;101593.81;;;13.66;100.00
42111;BME280;27766;52.174;5.456;2022-08-21T01:58:42;101597.19;;;13.61;100.00
42111;BME280;27766;52.174;5.456;2022-08-21T02:01:11;101594.59;;;13.61;100.00
42111;BME280;27766;52.174;5.456;2022-08-21T02:03:39;101596.31;;;13.59;100.00
42111;BME280;27766;52.174;5.456;2022-08-21T02:06:13;101593.59;;;13.53;100.00
42111;BME280;27766;52.174;5.456;2022-08-21T02:08:40;101586.59;;;13.49;100.00
42111;BME280;27766;52.174;5.456;2022-08-21T02:11:07;101588.38;;;13.53;100.00
42111;BME280;27766;52.174;5.456;2022-08-21T02:13:34;101579.63;;;13.47;100.00
42111;BME280;27766;52.174;5.456;2022-08-21T02:16:02;101594.47;;;13.52;100.00
42111;BME280;27766;52.174;5.456;2022-08-21T02:18:29;101584.00;;;13.49;100.00
42111;BME280;27766;52.174;5.456;2022-08-21T02:20:56;101585.75;;;13.50;100.00
42111;BME280;27766;52.174;5.456;2022-08-21T02:23:24;101583.94;;;13.46;100.00
42111;BME280;27766;52.174;5.456;2022-08-21T02:25:56;101577.78;;;13.41;100.00
42111;BME280;27766;52.174;5.456;2022-08-21T02:28:24;101563.72;;;13.31;100.00
42111;BME280;27766;52.174;5.456;2022-08-21T02:30:56;101573.28;;;13.34;100.00
42111;BME280;27766;52.174;5.456;2022-08-21T02:33:26;101579.25;;;13.29;100.00
42111;BME280;27766;52.174;5.456;2022-08-21T02:35:53;101569.72;;;13.28;100.00
42111;BME280;27766;52.174;5.456;2022-08-21T02:38:24;101558.41;;;13.25;100.00
42111;BME280;27766;52.174;5.456;2022-08-21T02:40:53;101572.25;;;13.25;100.00
42111;BME280;27766;52.174;5.456;2022-08-21T02:43:23;101560.88;;;13.19;100.00
42111;BME280;27766;52.174;5.456;2022-08-21T02:45:56;101569.59;;;13.22;100.00
42111;BME280;27766;52.174;5.456;2022-08-21T02:48:26;101563.44;;;13.17;100.00
42111;BME280;27766;52.174;5.456;2022-08-21T02:50:58;101543.38;;;13.10;100.00
42111;BME280;27766;52.174;5.456;2022-08-21T02:53:27;101558.25;;;13.19;100.00
42111;BME280;27766;52.174;5.456;2022-08-21T02:55:58;101553.00;;;13.14;100.00
42111;BME280;27766;52.174;5.456;2022-08-21T02:58:29;101551.28;;;13.16;100.00
42111;BME280;27766;52.174;5.456;2022-08-21T03:00:57;101559.06;;;13.14;100.00
42111;BME280;27766;52.174;5.456;2022-08-21T03:03:28;101555.59;;;13.14;100.00
42111;BME280;27766;52.174;5.456;2022-08-21T03:05:56;101557.31;;;13.13;100.00
42111;BME280;27766;52.174;5.456;2022-08-21T03:08:23;101551.28;;;13.14;100.00
42111;BME280;27766;52.174;5.456;2022-08-21T03:10:55;101546.91;;;13.12;100.00
42111;BME280;27766;52.174;5.456;2022-08-21T03:13:22;101541.63;;;13.09;100.00
42111;BME280;27766;52.174;5.456;2022-08-21T03:15:53;101540.78;;;13.10;100.00
42111;BME280;27766;52.174;5.456;2022-08-21T03:18:27;101541.75;;;13.15;100.00
42111;BME280;27766;52.174;5.456;2022-08-21T03:20:56;101540.00;;;13.14;100.00
42111;BME280;27766;52.174;5.456;2022-08-21T03:23:23;101550.41;;;13.14;100.00
42111;BME280;27766;52.174;5.456;2022-08-21T03:25:59;101552.97;;;13.12;100.00
42111;BME280;27766;52.174;5.456;2022-08-21T03:28:26;101552.09;;;13.12;100.00
42111;BME280;27766;52.174;5.456;2022-08-21T03:30:54;101543.38;;;13.10;100.00
42111;BME280;27766;52.174;5.456;2022-08-21T03:33:23;101546.81;;;13.09;100.00
42111;BME280;27766;52.174;5.456;2022-08-21T03:35:59;101543.38;;;13.08;100.00
42111;BME280;27766;52.174;5.456;2022-08-21T03:38:29;101552.84;;;13.06;100.00
42111;BME280;27766;52.174;5.456;2022-08-21T03:40:58;101540.59;;;13.01;100.00
42111;BME280;27766;52.174;5.456;2022-08-21T03:43:27;101550.16;;;13.02;100.00
42111;BME280;27766;52.174;5.456;2022-08-21T03:46:02;101543.19;;;13.01;100.00
42111;BME280;27766;52.174;5.456;2022-08-21T03:48:34;101542.25;;;12.95;100.00
42111;BME280;27766;52.174;5.456;2022-08-21T03:51:03;101550.03;;;12.94;100.00
42111;BME280;27766;52.174;5.456;2022-08-21T03:53:30;101544.72;;;12.89;100.00
42111;BME280;27766;52.174;5.456;2022-08-21T03:55:57;101539.47;;;12.86;100.00
42111;BME280;27766;52.174;5.456;2022-08-21T03:58:27;101544.63;;;12.83;100.00
42111;BME280;27766;52.174;5.456;2022-08-21T04:00:58;101544.53;;;12.80;100.00
42111;BME280;27766;52.174;5.456;2022-08-21T04:03:27;101554.00;;;12.78;100.00
42111;BME280;27766;52.174;5.456;2022-08-21T04:05:56;101546.19;;;12.75;100.00
42111;BME280;27766;52.174;5.456;2022-08-21T04:08:25;101542.72;;;12.76;100.00
42111;BME280;27766;52.174;5.456;2022-08-21T04:10:55;101544.47;;;12.77;100.00
42111;BME280;27766;52.174;5.456;2022-08-21T04:13:23;101553.09;;;12.76;100.00
42111;BME280;27766;52.174;5.456;2022-08-21T04:15:52;101546.19;;;12.76;100.00
42111;BME280;27766;52.174;5.456;2022-08-21T04:18:19;101540.91;;;12.72;100.00
42111;BME280;27766;52.174;5.456;2022-08-21T04:20:50;101542.75;;;12.77;100.00
42111;BME280;27766;52.174;5.456;2022-08-21T04:23:20;101544.44;;;12.75;100.00
42111;BME280;27766;52.174;5.456;2022-08-21T04:25:55;101546.19;;;12.75;100.00
42111;BME280;27766;52.174;5.456;2022-08-21T04:28:24;101549.63;;;12.74;100.00
42111;BME280;27766;52.174;5.456;2022-08-21T04:30:56;101544.44;;;12.74;100.00
42111;BME280;27766;52.174;5.456;2022-08-21T04:33:23;101541.72;;;12.69;100.00
42111;BME280;27766;52.174;5.456;2022-08-21T04:35:52;101548.69;;;12.72;100.00
42111;BME280;27766;52.174;5.456;2022-08-21T04:38:20;101541.72;;;12.68;100.00
42111;BME280;27766;52.174;5.456;2022-08-21T04:40:49;101551.31;;;12.72;100.00
42111;BME280;27766;52.174;5.456;2022-08-21T04:43:18;101543.47;;;12.70;100.00
42111;BME280;27766;52.174;5.456;2022-08-21T04:45:47;101539.13;;;12.68;100.00
42111;BME280;27766;52.174;5.456;2022-08-21T04:48:19;101539.94;;;12.66;100.00
42111;BME280;27766;52.174;5.456;2022-08-21T04:50:52;101544.31;;;12.68;100.00
42111;BME280;27766;52.174;5.456;2022-08-21T04:53:42;101537.34;;;12.66;100.00
42111;BME280;27766;52.174;5.456;2022-08-21T04:56:13;101545.09;;;12.65;100.00
42111;BME280;27766;52.174;5.456;2022-08-21T04:58:42;101546.91;;;12.68;100.00
42111;BME280;27766;52.174;5.456;2022-08-21T05:01:13;101549.50;;;12.68;100.00
42111;BME280;27766;52.174;5.456;2022-08-21T05:03:44;101545.97;;;12.65;100.00
42111;BME280;27766;52.174;5.456;2022-08-21T05:06:15;101547.75;;;12.66;100.00
42111;BME280;27766;52.174;5.456;2022-08-21T05:08:44;101550.28;;;12.65;100.00
42111;BME280;27766;52.174;5.456;2022-08-21T05:11:13;101558.13;;;12.66;100.00
42111;BME280;27766;52.174;5.456;2022-08-21T05:13:40;101558.97;;;12.65;100.00
42111;BME280;27766;52.174;5.456;2022-08-21T05:16:10;101567.63;;;12.66;100.00
42111;BME280;27766;52.174;5.456;2022-08-21T05:18:37;101564.19;;;12.67;100.00
42111;BME280;27766;52.174;5.456;2022-08-21T05:21:05;101568.66;;;12.73;100.00
42111;BME280;27766;52.174;5.456;2022-08-21T05:23:32;101566.97;;;12.75;100.00
42111;BME280;27766;52.174;5.456;2022-08-21T05:26:00;101572.19;;;12.78;100.00
42111;BME280;27766;52.174;5.456;2022-08-21T05:28:27;101564.47;;;12.81;100.00
42111;BME280;27766;52.174;5.456;2022-08-21T05:30:59;101567.09;;;12.82;100.00
42111;BME280;27766;52.174;5.456;2022-08-21T05:33:26;101573.34;;;12.91;100.00
42111;BME280;27766;52.174;5.456;2022-08-21T05:35:54;101573.44;;;12.95;100.00
42111;BME280;27766;52.174;5.456;2022-08-21T05:38:26;101574.38;;;12.99;100.00
42111;BME280;27766;52.174;5.456;2022-08-21T05:40:55;101565.78;;;13.03;100.00
42111;BME280;27766;52.174;5.456;2022-08-21T05:43:22;101575.44;;;13.10;100.00
42111;BME280;27766;52.174;5.456;2022-08-21T05:45:49;101567.72;;;13.13;100.00
42111;BME280;27766;52.174;5.456;2022-08-21T05:48:20;101573.06;;;13.21;100.00
42111;BME280;27766;52.174;5.456;2022-08-21T05:50:49;101559.25;;;13.25;100.00
42111;BME280;27766;52.174;5.456;2022-08-21T05:53:20;101563.78;;;13.36;100.00
42111;BME280;27766;52.174;5.456;2022-08-21T05:55:50;101558.78;;;13.45;100.00
42111;BME280;27766;52.174;5.456;2022-08-21T05:58:20;101566.81;;;13.57;100.00
42111;BME280;27766;52.174;5.456;2022-08-21T06:00:49;101563.53;;;13.68;100.00
42111;BME280;27766;52.174;5.456;2022-08-21T06:03:29;101559.41;;;13.82;100.00
42111;BME280;27766;52.174;5.456;2022-08-21T06:05:56;101558.69;;;13.92;100.00
42111;BME280;27766;52.174;5.456;2022-08-21T06:08:26;101559.75;;;14.04;100.00
42111;BME280;27766;52.174;5.456;2022-08-21T06:10:56;101555.56;;;14.15;100.00
42111;BME280;27766;52.174;5.456;2022-08-21T06:13:26;101562.66;;;14.27;100.00
42111;BME280;27766;52.174;5.456;2022-08-21T06:16:14;101562.88;;;14.41;100.00
42111;BME280;27766;52.174;5.456;2022-08-21T06:18:43;101542.91;;;14.41;100.00
42111;BME280;27766;52.174;5.456;2022-08-21T06:21:12;101553.59;;;14.62;100.00
42111;BME280;27766;52.174;5.456;2022-08-21T06:23:41;101560.69;;;14.72;100.00
42111;BME280;27766;52.174;5.456;2022-08-21T06:26:09;101562.53;;;14.81;100.00
42111;BME280;27766;52.174;5.456;2022-08-21T06:28:37;101557.38;;;14.87;100.00
42111;BME280;27766;52.174;5.456;2022-08-21T06:31:13;101567.19;;;15.05;100.00
42111;BME280;27766;52.174;5.456;2022-08-21T06:33:41;101556.81;;;15.11;100.00
42111;BME280;27766;52.174;5.456;2022-08-21T06:36:08;101562.16;;;15.25;100.00
42111;BME280;27766;52.174;5.456;2022-08-21T06:38:36;101561.38;;;15.35;100.00
42111;BME280;27766;52.174;5.456;2022-08-21T06:41:05;101557.16;;;15.48;100.00
42111;BME280;27766;52.174;5.456;2022-08-21T06:43:33;101556.41;;;15.62;100.00
42111;BME280;27766;52.174;5.456;2022-08-21T06:46:06;101556.53;;;15.76;100.00
42111;BME280;27766;52.174;5.456;2022-08-21T06:48:34;101561.00;;;15.88;100.00
42111;BME280;27766;52.174;5.456;2022-08-21T06:51:02;101557.63;;;16.01;100.00
42111;BME280;27766;52.174;5.456;2022-08-21T06:53:29;101569.91;;;16.19;100.00
42111;BME280;27766;52.174;5.456;2022-08-21T06:55:56;101565.59;;;16.29;100.00
42111;BME280;27766;52.174;5.456;2022-08-21T06:58:23;101563.09;;;16.41;100.00
42111;BME280;27766;52.174;5.456;2022-08-21T07:00:53;101564.94;;;16.63;100.00
42111;BME280;27766;52.174;5.456;2022-08-21T07:03:32;101566.69;;;16.74;100.00
42111;BME280;27766;52.174;5.456;2022-08-21T07:06:00;101561.53;;;16.85;100.00
42111;BME280;27766;52.174;5.456;2022-08-21T07:08:27;101565.94;;;16.96;100.00
42111;BME280;27766;52.174;5.456;2022-08-21T07:10:59;101565.13;;;17.04;100.00
42111;BME280;27766;52.174;5.456;2022-08-21T07:13:27;101565.13;;;17.17;100.00
42111;BME280;27766;52.174;5.456;2022-08-21T07:15:55;101559.03;;;17.19;100.00
42111;BME280;27766;52.174;5.456;2022-08-21T07:18:29;101551.16;;;17.08;100.00
42111;BME280;27766;52.174;5.456;2022-08-21T07:20:57;101552.94;;;17.25;100.00
42111;BME280;27766;52.174;5.456;2022-08-21T07:23:34;101552.94;;;17.28;100.00
42111;BME280;27766;52.174;5.456;2022-08-21T07:26:03;101546.88;;;17.46;100.00
42111;BME280;27766;52.174;5.456;2022-08-21T07:28:30;101552.13;;;17.62;100.00
42111;BME280;27766;52.174;5.456;2022-08-21T07:31:00;101551.22;;;17.77;100.00
42111;BME280;27766;52.174;5.456;2022-08-21T07:33:30;101547.72;;;17.87;100.00
42111;BME280;27766;52.174;5.456;2022-08-21T07:35:57;101552.97;;;18.04;100.00
42111;BME280;27766;52.174;5.456;2022-08-21T07:38:26;101555.59;;;18.06;100.00
42111;BME280;27766;52.174;5.456;2022-08-21T07:40:55;101551.22;;;18.04;100.00
42111;BME280;27766;52.174;5.456;2022-08-21T07:43:23;101556.47;;;18.01;100.00
42111;BME280;27766;52.174;5.456;2022-08-21T07:45:52;101558.19;;;18.10;100.00
42111;BME280;27766;52.174;5.456;2022-08-21T07:48:25;101564.31;;;18.08;100.00
42111;BME280;27766;52.174;5.456;2022-08-21T07:50:52;101552.97;;;18.01;100.00
42111;BME280;27766;52.174;5.456;2022-08-21T07:53:19;101559.03;;;18.20;100.00
42111;BME280;27766;52.174;5.456;2022-08-21T07:55:46;101556.41;;;18.32;100.00
42111;BME280;27766;52.174;5.456;2022-08-21T07:58:13;101548.56;;;18.25;100.00
42111;BME280;27766;52.174;5.456;2022-08-21T08:00:40;101563.38;;;18.37;100.00
42111;BME280;27766;52.174;5.456;2022-08-21T08:03:07;101559.81;;;18.53;100.00
42111;BME280;27766;52.174;5.456;2022-08-21T08:05:36;101565.91;;;18.63;100.00
42111;BME280;27766;52.174;5.456;2022-08-21T08:08:06;101559.72;;;18.75;100.00
42111;BME280;27766;52.174;5.456;2022-08-21T08:10:33;101551.00;;;18.79;100.00
42111;BME280;27766;52.174;5.456;2022-08-21T08:13:01;101562.28;;;18.89;100.00
42111;BME280;27766;52.174;5.456;2022-08-21T08:15:29;101556.13;;;19.05;100.00
42111;BME280;27766;52.174;5.456;2022-08-21T08:18:03;101557.84;;;19.08;100.00
42111;BME280;27766;52.174;5.456;2022-08-21T08:20:30;101549.03;;;19.20;100.00
42111;BME280;27766;52.174;5.456;2022-08-21T08:22:57;101546.50;;;19.06;100.00
42111;BME280;27766;52.174;5.456;2022-08-21T08:25:27;101553.50;;;19.02;100.00
42111;BME280;27766;52.174;5.456;2022-08-21T08:28:04;101544.75;;;19.05;100.00
42111;BME280;27766;52.174;5.456;2022-08-21T08:30:46;101552.50;;;19.26;100.00
42111;BME280;27766;52.174;5.456;2022-08-21T08:33:13;101542.84;;;19.32;100.00
42111;BME280;27766;52.174;5.456;2022-08-21T08:35:44;101542.81;;;19.36;100.00
42111;BME280;27766;52.174;5.456;2022-08-21T08:38:12;101552.38;;;19.40;100.00
42111;BME280;27766;52.174;5.456;2022-08-21T08:40:47;101540.16;;;19.41;100.00
42111;BME280;27766;52.174;5.456;2022-08-21T08:43:18;101548.94;;;19.35;100.00
42111;BME280;27766;52.174;5.456;2022-08-21T08:45:50;101553.25;;;19.45;100.00
42111;BME280;27766;52.174;5.456;2022-08-21T08:48:55;101558.31;;;19.67;100.00
42111;BME280;27766;52.174;5.456;2022-08-21T08:51:46;101554.69;;;19.85;100.00
42111;BME280;27766;52.174;5.456;2022-08-21T08:54:24;101551.78;;;20.12;100.00
42111;BME280;27766;52.174;5.456;2022-08-21T08:56:52;101549.75;;;20.37;100.00
42111;BME280;27766;52.174;5.456;2022-08-21T08:59:26;101547.78;;;20.56;100.00
42111;BME280;27766;52.174;5.456;2022-08-21T09:01:56;101552.00;;;20.68;100.00
42111;BME280;27766;52.174;5.456;2022-08-21T09:04:26;101560.63;;;20.84;100.00
42111;BME280;27766;52.174;5.456;2022-08-21T09:12:51;101535.81;;;20.32;100.00
42111;BME280;27766;52.174;5.456;2022-08-21T09:15:50;101539.38;;;20.23;100.00
42111;BME280;27766;52.174;5.456;2022-08-21T09:24:44;101536.19;;;20.74;100.00
42111;BME280;27766;52.174;5.456;2022-08-21T09:27:19;101537.94;;;20.70;100.00
42111;BME280;27766;52.174;5.456;2022-08-21T09:29:51;101549.59;;;20.51;100.00
42111;BME280;27766;52.174;5.456;2022-08-21T09:32:22;101545.34;;;20.39;100.00
42111;BME280;27766;52.174;5.456;2022-08-21T09:35:19;101542.75;;;20.37;100.00
42111;BME280;27766;52.174;5.456;2022-08-21T09:37:48;101547.69;;;20.62;100.00
42111;BME280;27766;52.174;5.456;2022-08-21T09:43:22;101543.53;;;21.11;100.00
42111;BME280;27766;52.174;5.456;2022-08-21T09:46:21;101544.16;;;21.29;100.00
42111;BME280;27766;52.174;5.456;2022-08-21T09:48:53;101544.66;;;21.53;100.00
42111;BME280;27766;52.174;5.456;2022-08-21T09:51:26;101544.53;;;21.63;100.00
42111;BME280;27766;52.174;5.456;2022-08-21T09:54:12;101549.91;;;21.56;100.00
42111;BME280;27766;52.174;5.456;2022-08-21T09:57:00;101544.22;;;21.26;100.00
42111;BME280;27766;52.174;5.456;2022-08-21T09:59:46;101543.25;;;21.33;100.00
42111;BME280;27766;52.174;5.456;2022-08-21T10:02:31;101537.09;;;21.34;100.00
42111;BME280;27766;52.174;5.456;2022-08-21T10:05:02;101534.63;;;21.22;100.00
42111;BME280;27766;52.174;5.456;2022-08-21T10:07:32;101532.53;;;21.42;100.00
42111;BME280;27766;52.174;5.456;2022-08-21T10:12:49;101534.41;;;21.90;100.00
42111;BME280;27766;52.174;5.456;2022-08-21T10:15:32;101536.44;;;21.74;100.00
42111;BME280;27766;52.174;5.456;2022-08-21T10:18:09;101535.13;;;21.97;100.00
42111;BME280;27766;52.174;5.456;2022-08-21T10:21:02;101537.72;;;22.00;100.00
42111;BME280;27766;52.174;5.456;2022-08-21T10:23:51;101528.81;;;22.07;100.00
42111;BME280;27766;52.174;5.456;2022-08-21T10:35:22;101524.34;;;22.11;100.00
42111;BME280;27766;52.174;5.456;2022-08-21T10:41:26;101521.03;;;22.00;100.00
42111;BME280;27766;52.174;5.456;2022-08-21T10:44:04;101525.88;;;22.23;100.00
42111;BME280;27766;52.174;5.456;2022-08-21T10:46:44;101526.28;;;22.48;100.00
42111;BME280;27766;52.174;5.456;2022-08-21T10:55:06;101517.59;;;22.84;100.00
42111;BME280;27766;52.174;5.456;2022-08-21T10:57:50;101506.97;;;22.87;100.00
42111;BME280;27766;52.174;5.456;2022-08-21T11:00:21;101506.84;;;22.91;100.00
42111;BME280;27766;52.174;5.456;2022-08-21T11:03:33;101498.97;;;22.90;100.00
42111;BME280;27766;52.174;5.456;2022-08-21T11:05:58;101505.91;;;22.55;100.00
42111;BME280;27766;52.174;5.456;2022-08-21T11:08:39;101514.06;;;22.44;100.00
42111;BME280;27766;52.174;5.456;2022-08-21T11:11:15;101500.34;;;22.25;100.00
42111;BME280;27766;52.174;5.456;2022-08-21T11:17:10;101510.16;;;22.60;100.00
42111;BME280;27766;52.174;5.456;2022-08-21T11:19:54;101511.75;;;22.69;100.00
42111;BME280;27766;52.174;5.456;2022-08-21T11:22:54;101504.84;;;22.64;100.00
42111;BME280;27766;52.174;5.456;2022-08-21T11:25:32;101510.00;;;22.68;100.00
42111;BME280;27766;52.174;5.456;2022-08-21T11:28:20;101504.28;;;22.88;100.00
42111;BME280;27766;52.174;5.456;2022-08-21T11:33:49;101503.03;;;23.05;100.00
42111;BME280;27766;52.174;5.456;2022-08-21T11:43:04;101507.94;;;22.42;100.00
42111;BME280;27766;52.174;5.456;2022-08-21T11:45:59;101505.91;;;22.55;100.00
42111;BME280;27766;52.174;5.456;2022-08-21T11:48:41;101516.19;;;22.67;100.00
42111;BME280;27766;52.174;5.456;2022-08-21T11:51:16;101502.44;;;22.92;100.00
42111;BME280;27766;52.174;5.456;2022-08-21T11:53:46;101515.19;;;23.11;100.00
42111;BME280;27766;52.174;5.456;2022-08-21T11:56:38;101509.06;;;22.71;100.00
42111;BME280;27766;52.174;5.456;2022-08-21T11:59:28;101528.72;;;22.57;100.00
42111;BME280;27766;52.174;5.456;2022-08-21T12:01:58;101521.97;;;22.44;100.00
42111;BME280;27766;52.174;5.456;2022-08-21T12:04:30;101524.25;;;22.16;100.00
42111;BME280;27766;52.174;5.456;2022-08-21T12:07:13;101527.47;;;21.85;100.00
42111;BME280;27766;52.174;5.456;2022-08-21T12:09:52;101531.09;;;21.79;100.00
42111;BME280;27766;52.174;5.456;2022-08-21T12:12:29;101531.56;;;22.00;100.00
42111;BME280;27766;52.174;5.456;2022-08-21T12:17:59;101511.19;;;22.55;100.00
42111;BME280;27766;52.174;5.456;2022-08-21T12:20:36;101523.00;;;22.77;100.00
42111;BME280;27766;52.174;5.456;2022-08-21T12:25:42;101522.38;;;22.66;100.00
42111;BME280;27766;52.174;5.456;2022-08-21T12:28:16;101516.19;;;22.67;100.00
42111;BME280;27766;52.174;5.456;2022-08-21T12:30:49;101506.47;;;23.08;100.00
42111;BME280;27766;52.174;5.456;2022-08-21T12:33:28;101515.16;;;23.50;100.00
42111;BME280;27766;52.174;5.456;2022-08-21T12:36:07;101513.00;;;23.66;96.79
42111;BME280;27766;52.174;5.456;2022-08-21T12:39:05;101508.03;;;23.86;90.88
42111;BME280;27766;52.174;5.456;2022-08-21T12:41:48;101515.75;;;23.96;92.58
42111;BME280;27766;52.174;5.456;2022-08-21T12:44:20;101518.84;;;23.79;91.16
42111;BME280;27766;52.174;5.456;2022-08-21T12:46:59;101511.31;;;23.27;90.82
42111;BME280;27766;52.174;5.456;2022-08-21T12:49:37;101516.97;;;23.10;98.46
42111;BME280;27766;52.174;5.456;2022-08-21T12:54:41;101511.03;;;23.39;97.08
42111;BME280;27766;52.174;5.456;2022-08-21T12:57:18;101532.78;;;23.49;88.52
42111;BME280;27766;52.174;5.456;2022-08-21T12:59:45;101520.94;;;23.64;85.67
42111;BME280;27766;52.174;5.456;2022-08-21T13:02:18;101516.28;;;23.41;84.65
42111;BME280;27766;52.174;5.456;2022-08-21T13:04:47;101525.81;;;23.47;86.13
42111;BME280;27766;52.174;5.456;2022-08-21T13:07:25;101524.38;;;23.68;92.57
42111;BME280;27766;52.174;5.456;2022-08-21T13:10:05;101531.13;;;23.80;90.31
42111;BME280;27766;52.174;5.456;2022-08-21T13:12:35;101531.63;;;23.61;94.51
42111;BME280;27766;52.174;5.456;2022-08-21T13:15:05;101536.72;;;23.67;92.67
42111;BME280;27766;52.174;5.456;2022-08-21T13:17:39;101525.94;;;23.77;86.42
42111;BME280;27766;52.174;5.456;2022-08-21T13:20:30;101539.19;;;24.08;82.33
42111;BME280;27766;52.174;5.456;2022-08-21T13:23:03;101531.00;;;23.84;82.52
42111;BME280;27766;52.174;5.456;2022-08-21T13:25:36;101530.13;;;24.18;82.21
42111;BME280;27766;52.174;5.456;2022-08-21T13:28:11;101523.88;;;24.21;80.13
42111;BME280;27766;52.174;5.456;2022-08-21T13:30:51;101532.88;;;24.75;77.83
42111;BME280;27766;52.174;5.456;2022-08-21T13:33:22;101531.56;;;24.90;70.61
42111;BME280;27766;52.174;5.456;2022-08-21T13:38:50;101523.75;;;25.14;63.64
42111;BME280;27766;52.174;5.456;2022-08-21T13:41:27;101521.94;;;25.43;60.54
42111;BME280;27766;52.174;5.456;2022-08-21T13:44:05;101529.06;;;25.41;60.82
42111;BME280;27766;52.174;5.456;2022-08-21T13:46:35;101514.94;;;25.67;62.51
42111;BME280;27766;52.174;5.456;2022-08-21T13:49:04;101525.34;;;25.20;61.98
42111;BME280;27766;52.174;5.456;2022-08-21T13:51:33;101527.38;;;24.53;70.17
42111;BME280;27766;52.174;5.456;2022-08-21T13:54:01;101525.63;;;24.52;75.60
42111;BME280;27766;52.174;5.456;2022-08-21T13:58:58;101522.78;;;24.58;73.96
42111;BME280;27766;52.174;5.456;2022-08-21T14:01:38;101516.78;;;24.22;75.03
42111;BME280;27766;52.174;5.456;2022-08-21T14:04:16;101524.44;;;24.32;78.74
42111;BME280;27766;52.174;5.456;2022-08-21T14:06:46;101519.03;;;24.65;71.35
42111;BME280;27766;52.174;5.456;2022-08-21T14:09:34;101510.09;;;25.26;64.60